Time;durP1;ratioP1;P1;durP2;ratioP2;P2;SDS_P1;SDS_P2;PMS_P1;PMS_P2;Temp;Humidity;BMP_temperature;BMP_pressure;BME280_temperature;BME280_humidity;BME280_pressure;Samples;Min_cycle;Max_cycle;Signal;HPM_P1;HPM_P2
2021/08/31 00:01:03;;;;;;;12.73;8.38;;;;;;;11.16;97.41;98906.72;5044766;28;20032;-70
2021/08/31 00:03:28;;;;;;;16.38;8.65;;;;;;;11.10;97.75;98912.09;5027050;28;20024;-70
2021/08/31 00:05:53;;;;;;;14.85;8.65;;;;;;;11.09;97.63;98910.38;5027056;28;20019;-70
2021/08/31 00:08:21;;;;;;;19.25;10.88;;;;;;;11.07;97.99;98906.88;5044618;28;20024;-70
2021/08/31 00:10:47;;;;;;;23.25;11.88;;;;;;;11.05;97.52;98902.56;5044440;28;20112;-70
2021/08/31 00:13:12;;;;;;;17.27;9.93;;;;;;;10.99;97.33;98898.25;5044531;28;20193;-70
2021/08/31 00:15:38;;;;;;;16.88;9.38;;;;;;;10.97;97.43;98905.31;5044219;28;20028;-70
2021/08/31 00:18:03;;;;;;;16.25;9.02;;;;;;;10.95;97.34;98904.47;5044438;28;20051;-70
2021/08/31 00:20:29;;;;;;;16.38;9.57;;;;;;;11.00;97.08;98910.53;5044536;28;20017;-70
2021/08/31 00:22:54;;;;;;;15.60;9.43;;;;;;;10.99;97.10;98903.53;5044375;28;20017;-70
2021/08/31 00:25:21;;;;;;;14.15;9.55;;;;;;;10.98;97.13;98904.41;5044328;28;20068;-70
2021/08/31 00:27:47;;;;;;;13.60;8.85;;;;;;;10.98;97.43;98904.41;5044293;28;20025;-70
2021/08/31 00:30:12;;;;;;;22.55;9.38;;;;;;;11.00;97.51;98910.53;5044276;28;20025;-70
2021/08/31 00:32:38;;;;;;;14.18;9.02;;;;;;;10.98;96.88;98917.56;5044185;28;20026;-70
2021/08/31 00:35:04;;;;;;;17.08;8.93;;;;;;;10.72;96.21;98914.50;5026475;28;20025;-70
2021/08/31 00:37:29;;;;;;;15.63;8.93;;;;;;;10.73;96.85;98917.09;5044145;28;20021;-70
2021/08/31 00:39:54;;;;;;;17.52;10.48;;;;;;;10.68;97.46;98918.94;5044113;28;20021;-70
2021/08/31 00:42:20;;;;;;;17.33;9.77;;;;;;;10.74;97.13;98910.09;5026480;28;20031;-70
2021/08/31 00:44:46;;;;;;;19.45;10.82;;;;;;;10.76;97.82;98921.47;5044080;28;20024;-70
2021/08/31 00:47:11;;;;;;;15.27;9.32;;;;;;;10.77;97.64;98918.81;5043656;28;20021;-70
2021/08/31 00:49:36;;;;;;;17.75;9.30;;;;;;;10.78;97.39;98925.81;5043731;28;20017;-70
2021/08/31 00:52:03;;;;;;;17.08;9.38;;;;;;;10.65;97.75;98919.00;5044000;28;20021;-70
2021/08/31 00:54:29;;;;;;;18.60;9.75;;;;;;;10.61;97.64;98924.31;5044077;28;20075;-70
2021/08/31 00:57:03;;;;;;;11.82;7.72;;;;;;;10.60;97.88;98925.22;5043898;28;20022;-70
2021/08/31 00:59:28;;;;;;;11.98;8.20;;;;;;;10.52;97.63;98916.56;5043995;28;20030;-70
2021/08/31 01:01:55;;;;;;;13.27;8.48;;;;;;;10.54;97.89;98920.91;5044011;28;20022;-70
2021/08/31 01:04:25;;;;;;;13.85;8.88;;;;;;;10.54;98.20;98920.06;5062093;23;20278;-88
2021/08/31 01:06:52;;;;;;;15.95;9.40;;;;;;;10.56;98.04;98912.97;5046200;28;20013;-88
2021/08/31 01:09:21;;;;;;;19.77;10.68;;;;;;;10.40;97.52;98906.22;5063855;28;20043;-88
2021/08/31 01:11:48;;;;;;;13.68;8.50;;;;;;;10.46;97.28;98914.00;5046133;28;20044;-88
2021/08/31 01:14:15;;;;;;;16.00;8.82;;;;;;;10.34;97.08;98911.56;5046109;28;20027;-88
2021/08/31 01:16:40;;;;;;;13.95;7.93;;;;;;;10.23;96.96;98910.84;5032660;28;20067;-88
2021/08/31 01:19:06;;;;;;;15.40;8.27;;;;;;;10.08;97.05;98911.91;5043951;28;20095;-88
2021/08/31 01:21:32;;;;;;;15.15;9.32;;;;;;;10.18;97.92;98912.66;5046015;28;20315;-88
2021/08/31 01:23:58;;;;;;;30.02;10.20;;;;;;;10.24;98.49;98915.19;5045914;28;20369;-88
2021/08/31 01:26:25;;;;;;;19.70;10.73;;;;;;;10.28;98.66;98923.03;5045881;28;20029;-88
2021/08/31 01:28:51;;;;;;;14.93;9.15;;;;;;;10.31;98.42;98922.13;5046199;28;20048;-88
2021/08/31 01:31:16;;;;;;;16.05;9.95;;;;;;;10.21;98.00;98920.50;5045905;28;20312;-88
2021/08/31 01:33:43;;;;;;;15.85;8.90;;;;;;;10.26;97.67;98929.22;5045937;28;20021;-88
2021/08/31 01:36:25;;;;;;;16.33;9.73;;;;;;;10.20;97.56;98938.06;5063557;28;20335;-88
2021/08/31 01:38:53;;;;;;;16.27;10.55;;;;;;;10.18;97.48;98931.94;5045933;28;20373;-88
2021/08/31 01:41:20;;;;;;;21.98;10.55;;;;;;;10.19;97.58;98938.09;5045804;28;20027;-88
2021/08/31 01:43:45;;;;;;;22.60;10.50;;;;;;;10.24;97.79;98936.25;5045752;28;20052;-88
2021/08/31 01:46:12;;;;;;;33.90;12.68;;;;;;;10.14;97.93;98939.91;5062653;28;20021;-88
2021/08/31 01:48:37;;;;;;;27.70;9.90;;;;;;;10.18;97.63;98938.97;5063483;28;20127;-88
2021/08/31 01:51:04;;;;;;;22.35;9.68;;;;;;;10.06;97.83;98940.00;5045734;28;20242;-88
2021/08/31 01:53:29;;;;;;;18.48;10.13;;;;;;;10.04;97.39;98944.38;5045577;28;20027;-88
2021/08/31 01:55:55;;;;;;;24.25;10.13;;;;;;;10.06;97.94;98941.72;5045896;28;20045;-88
2021/08/31 01:58:20;;;;;;;28.58;9.98;;;;;;;9.96;97.87;98940.06;5045647;28;20025;-88
2021/08/31 02:00:46;;;;;;;12.48;8.30;;;;;;;9.94;98.06;98939.25;5047403;28;20025;-88
2021/08/31 02:03:12;;;;;;;19.55;8.80;;;;;;;9.90;97.67;98940.19;5046463;28;20021;-88
2021/08/31 02:05:37;;;;;;;16.30;8.95;;;;;;;9.83;97.89;98946.38;5049338;28;20055;-88
2021/08/31 02:08:03;;;;;;;13.85;8.82;;;;;;;9.82;97.66;98955.16;5049218;28;20021;-88
2021/08/31 02:10:28;;;;;;;14.60;8.95;;;;;;;9.90;97.94;98950.69;5049169;28;20025;-88
2021/08/31 02:12:53;;;;;;;14.02;8.65;;;;;;;9.87;97.31;98945.47;5049440;28;20067;-88
2021/08/31 02:15:19;;;;;;;15.18;8.40;;;;;;;9.88;97.10;98947.19;5049039;28;20025;-88
2021/08/31 02:17:44;;;;;;;14.30;8.65;;;;;;;9.81;96.86;98950.78;5066815;28;20071;-88
2021/08/31 02:20:11;;;;;;;13.52;8.18;;;;;;;9.74;96.94;98944.72;5048975;28;20032;-88
2021/08/31 02:22:37;;;;;;;16.65;8.45;;;;;;;9.71;96.86;98949.16;5048902;28;20032;-88
2021/08/31 02:25:04;;;;;;;20.42;10.95;;;;;;;9.65;96.78;98951.84;5048867;28;20071;-88
2021/08/31 02:27:29;;;;;;;19.40;9.95;;;;;;;9.66;97.54;98946.59;5048842;28;20024;-88
2021/08/31 02:29:55;;;;;;;20.33;10.40;;;;;;;9.63;97.42;98935.22;5048856;28;20315;-88
2021/08/31 02:32:20;;;;;;;14.80;8.48;;;;;;;9.59;96.79;98933.53;5048884;28;20021;-88
2021/08/31 02:34:45;;;;;;;12.55;7.80;;;;;;;9.63;97.37;98936.09;5048753;28;20029;-88
2021/08/31 02:37:11;;;;;;;14.32;7.93;;;;;;;9.66;97.10;98937.81;5048942;28;20096;-88
2021/08/31 02:39:37;;;;;;;14.35;8.27;;;;;;;9.65;97.44;98933.47;5048642;28;20021;-88
2021/08/31 02:42:02;;;;;;;16.25;9.10;;;;;;;9.66;98.09;98937.81;5048567;28;20024;-88
2021/08/31 02:44:28;;;;;;;18.80;10.80;;;;;;;9.75;97.97;98941.19;5048503;28;20021;-88
2021/08/31 02:46:53;;;;;;;12.52;8.13;;;;;;;9.62;96.72;98942.22;5048477;28;20033;-88
2021/08/31 02:49:19;;;;;;;12.20;8.05;;;;;;;9.56;96.73;98946.69;5048477;28;20028;-88
2021/08/31 02:51:44;;;;;;;11.07;7.30;;;;;;;9.49;96.43;98948.50;5048408;28;20319;-88
2021/08/31 02:54:10;;;;;;;14.25;8.23;;;;;;;9.41;96.49;98950.34;5048667;28;20099;-88
2021/08/31 02:56:36;;;;;;;15.52;7.97;;;;;;;9.36;96.83;98949.50;5048489;28;20032;-88
2021/08/31 02:59:01;;;;;;;15.43;9.77;;;;;;;9.48;97.46;98953.75;5048249;28;20078;-88
2021/08/31 03:03:59;;;;;;;24.00;11.38;;;;;;;9.60;97.56;98956.28;5065807;28;20232;-88
2021/08/31 03:06:26;;;;;;;20.45;10.45;;;;;;;9.60;97.40;98957.16;5048194;28;20334;-88
2021/08/31 03:08:52;;;;;;;41.20;11.10;;;;;;;9.57;97.85;98958.94;5047945;28;20052;-88
2021/08/31 03:11:17;;;;;;;24.05;10.63;;;;;;;9.61;97.38;98963.25;5047767;28;20016;-88
2021/08/31 03:13:43;;;;;;;29.90;10.27;;;;;;;9.51;98.17;98961.63;5048031;28;20024;-88
2021/08/31 03:16:08;;;;;;;59.58;10.80;;;;;;;9.48;98.46;98951.13;5048285;28;20024;-88
2021/08/31 03:18:33;;;;;;;37.33;11.05;;;;;;;9.45;99.00;98966.94;5047947;28;20207;-88
2021/08/31 03:20:59;;;;;;;22.48;8.45;;;;;;;9.51;98.77;98956.34;5048232;28;20270;-88
2021/08/31 03:23:25;;;;;;;18.95;10.10;;;;;;;9.49;97.93;98966.88;5047730;28;20021;-88
2021/08/31 03:25:50;;;;;;;22.63;10.45;;;;;;;9.45;97.98;98973.06;5048160;28;20247;-88
2021/08/31 03:28:15;;;;;;;25.17;10.80;;;;;;;9.49;97.80;98968.66;5047763;28;20335;-88
2021/08/31 03:30:41;;;;;;;20.95;10.02;;;;;;;9.48;98.06;98977.41;5047801;28;20043;-88
2021/08/31 03:33:06;;;;;;;23.70;9.50;;;;;;;9.50;97.52;98970.41;5047644;28;20021;-88
2021/08/31 03:35:32;;;;;;;24.33;10.10;;;;;;;9.52;97.35;98974.75;5047869;28;20092;-88
2021/08/31 03:37:57;;;;;;;15.70;9.38;;;;;;;9.55;97.29;98979.13;5047568;28;20020;-88
2021/08/31 03:40:23;;;;;;;16.65;9.68;;;;;;;9.51;97.26;98978.25;5047520;28;20020;-88
2021/08/31 03:42:48;;;;;;;18.15;9.10;;;;;;;9.50;96.86;98978.28;5047394;28;20082;-88
2021/08/31 03:45:15;;;;;;;19.35;9.98;;;;;;;9.32;96.59;98981.94;5047372;28;20017;-89
2021/08/31 03:47:41;;;;;;;15.90;9.00;;;;;;;9.31;96.73;98989.84;5047272;28;20021;-89
2021/08/31 03:50:07;;;;;;;14.25;8.40;;;;;;;9.34;96.08;98984.56;5047258;28;20316;-89
2021/08/31 03:52:33;;;;;;;12.90;8.88;;;;;;;9.33;96.02;98982.81;5047628;28;20020;-89
2021/08/31 03:54:59;;;;;;;28.70;9.57;;;;;;;9.19;96.49;98984.69;5047164;28;20075;-89
2021/08/31 03:57:24;;;;;;;20.60;10.30;;;;;;;9.11;96.65;98992.63;5047154;28;20250;-89
2021/08/31 03:59:50;;;;;;;22.38;9.88;;;;;;;9.21;96.77;98988.19;5047134;28;20021;-89
2021/08/31 04:02:16;;;;;;;15.88;9.40;;;;;;;9.23;96.99;98991.63;5046786;28;20058;-89
2021/08/31 04:04:41;;;;;;;16.70;9.20;;;;;;;9.27;97.14;98993.38;5056736;28;20049;-89
2021/08/31 04:07:07;;;;;;;29.58;11.15;;;;;;;9.18;96.96;98993.47;5063628;28;20024;-89
2021/08/31 04:09:34;;;;;;;22.73;10.75;;;;;;;9.17;97.14;99004.84;5063766;28;20044;-89
2021/08/31 04:11:59;;;;;;;16.02;10.18;;;;;;;9.08;97.18;98997.88;5063532;28;20395;-89
2021/08/31 04:14:24;;;;;;;17.98;9.20;;;;;;;9.20;97.28;99008.31;5063824;28;20025;-89
2021/08/31 04:16:51;;;;;;;19.52;9.85;;;;;;;9.13;96.94;99005.72;5063802;28;20036;-91
2021/08/31 04:19:17;;;;;;;26.55;10.98;;;;;;;9.05;96.89;99018.91;5058535;28;20025;-89
2021/08/31 04:21:42;;;;;;;39.28;13.40;;;;;;;8.92;97.68;99016.41;5063344;28;20056;-89
2021/08/31 04:24:09;;;;;;;21.15;12.13;;;;;;;8.88;97.59;99022.53;5063276;28;20216;-89
2021/08/31 04:26:34;;;;;;;28.98;11.95;;;;;;;8.89;98.17;99021.69;5063303;28;20046;-89
2021/08/31 04:29:00;;;;;;;23.25;11.43;;;;;;;8.97;97.91;99026.00;5063245;28;20211;-89
2021/08/31 04:31:25;;;;;;;35.75;11.73;;;;;;;9.06;97.92;99019.81;5063235;28;20318;-89
2021/08/31 04:33:51;;;;;;;28.98;12.43;;;;;;;9.01;97.78;99014.56;5063191;28;20032;-89
2021/08/31 04:36:18;;;;;;;16.08;9.88;;;;;;;9.12;97.67;99019.75;5063055;28;20092;-89
2021/08/31 04:38:44;;;;;;;21.88;9.52;;;;;;;9.09;97.26;99011.91;5063071;28;20067;-89
2021/08/31 04:41:10;;;;;;;26.38;10.02;;;;;;;9.09;97.55;99018.03;5063474;28;20066;-89
2021/08/31 04:43:36;;;;;;;34.80;12.57;;;;;;;9.18;97.73;99015.34;5064480;28;20025;-89
2021/08/31 04:46:02;;;;;;;19.20;10.55;;;;;;;9.14;97.42;99018.00;5062967;28;20029;-89
2021/08/31 04:48:28;;;;;;;36.53;11.85;;;;;;;9.16;96.96;99016.22;5063340;28;20127;-89
2021/08/31 04:50:53;;;;;;;32.72;11.07;;;;;;;9.07;97.45;99016.28;5063007;28;20048;-89
2021/08/31 04:53:20;;;;;;;26.98;10.45;;;;;;;9.15;97.37;99027.63;5063005;28;20028;-89
2021/08/31 04:55:46;;;;;;;21.98;9.95;;;;;;;9.17;96.98;99034.59;5063946;28;20020;-89
2021/08/31 04:58:11;;;;;;;21.13;11.70;;;;;;;9.10;97.19;99026.75;5062911;28;20028;-89
2021/08/31 05:00:37;;;;;;;22.85;10.77;;;;;;;9.19;97.23;99037.22;5063166;28;20021;-89
2021/08/31 05:03:02;;;;;;;30.35;10.18;;;;;;;9.21;96.91;99038.06;5062742;28;20021;-90
2021/08/31 05:05:27;;;;;;;19.10;10.60;;;;;;;9.17;96.40;99033.75;5062665;28;20044;-89
2021/08/31 05:07:53;;;;;;;22.77;10.77;;;;;;;9.14;96.25;99033.75;5062731;28;20028;-89
2021/08/31 05:10:18;;;;;;;31.83;10.98;;;;;;;9.11;96.60;99039.03;5062738;28;20029;-89
2021/08/31 05:12:44;;;;;;;22.67;10.07;;;;;;;9.15;96.74;99041.63;5062734;28;20100;-89
2021/08/31 05:15:10;;;;;;;16.88;10.18;;;;;;;9.16;96.30;99034.59;5062669;28;20204;-89
2021/08/31 05:17:36;;;;;;;18.20;10.10;;;;;;;9.20;96.30;99038.97;5062658;28;20021;-89
2021/08/31 05:20:04;;;;;;;24.70;11.13;;;;;;;9.12;96.14;99035.50;5062657;28;20311;-89
2021/08/31 05:22:30;;;;;;;17.70;10.38;;;;;;;9.15;96.71;99028.50;5062627;28;20032;-89
2021/08/31 05:24:55;;;;;;;30.00;10.93;;;;;;;9.11;96.33;99028.53;5062669;28;20048;-89
2021/08/31 05:27:22;;;;;;;19.20;10.20;;;;;;;8.99;96.71;99039.09;5062844;28;20021;-89
2021/08/31 05:29:48;;;;;;;18.65;11.43;;;;;;;9.07;96.86;99042.53;5063701;28;20025;-89
2021/08/31 05:32:14;;;;;;;15.40;9.35;;;;;;;9.12;96.14;99040.75;5062562;28;20342;-89
2021/08/31 05:34:39;;;;;;;17.63;9.38;;;;;;;9.11;95.80;99044.28;5062960;28;20024;-89
2021/08/31 05:37:05;;;;;;;21.33;9.85;;;;;;;9.11;96.15;99053.00;5066736;28;20029;-89
2021/08/31 05:39:33;;;;;;;19.20;11.38;;;;;;;9.15;96.82;99056.50;5066450;28;20328;-89
2021/08/31 05:42:04;;;;;;;24.63;12.57;;;;;;;9.21;96.53;99056.47;5066399;28;20063;-89
2021/08/31 05:44:31;;;;;;;33.10;13.80;;;;;;;9.37;96.44;99058.09;5066397;28;20025;-89
2021/08/31 05:46:56;;;;;;;30.42;13.80;;;;;;;9.52;95.88;99057.97;5066578;28;20304;-89
2021/08/31 05:49:23;;;;;;;25.45;11.68;;;;;;;9.67;95.66;99063.06;5066604;28;20163;-89
2021/08/31 05:51:48;;;;;;;31.58;13.20;;;;;;;9.68;95.84;99065.69;5066255;28;20307;-89
2021/08/31 05:54:14;;;;;;;27.58;12.20;;;;;;;9.78;95.61;99061.22;5066479;28;20051;-89
2021/08/31 05:56:40;;;;;;;21.55;11.75;;;;;;;10.45;94.53;99071.03;5066043;28;20020;-89
2021/08/31 05:59:05;;;;;;;30.15;12.32;;;;;;;10.86;93.27;99071.38;5067199;28;20021;-89
2021/08/31 06:01:31;;;;;;;21.88;12.23;;;;;;;11.48;93.39;99073.09;5066080;28;20100;-89
2021/08/31 06:03:56;;;;;;;20.58;11.90;;;;;;;12.01;92.45;99065.19;5065708;28;20039;-89
2021/08/31 06:06:21;;;;;;;23.70;12.35;;;;;;;12.42;91.24;99067.91;5065981;28;20016;-89
2021/08/31 06:08:47;;;;;;;19.48;11.73;;;;;;;12.64;90.30;99068.31;5065867;28;20316;-89
2021/08/31 06:11:17;;;;;;;19.75;11.65;;;;;;;12.89;90.17;99080.13;5065866;28;20092;-89
2021/08/31 06:13:42;;;;;;;21.30;13.43;;;;;;;13.10;90.17;99068.25;5066107;28;20246;-89
2021/08/31 06:16:08;;;;;;;25.63;10.70;;;;;;;13.52;88.45;99068.13;5065992;28;20017;-90
2021/08/31 06:18:34;;;;;;;21.13;11.13;;;;;;;13.12;90.21;99077.00;5065663;28;20021;-89
2021/08/31 06:20:59;;;;;;;17.13;10.70;;;;;;;12.96;90.25;99077.31;5066799;28;20315;-89
2021/08/31 06:23:24;;;;;;;29.15;14.00;;;;;;;13.93;89.28;99067.06;5065629;28;20017;-89
2021/08/31 06:25:50;;;;;;;26.50;14.30;;;;;;;13.70;90.37;99080.88;5065590;28;20013;-89
2021/08/31 06:28:15;;;;;;;26.63;15.75;;;;;;;13.48;92.47;99082.28;5065505;28;20040;-89
2021/08/31 06:30:41;;;;;;;30.80;17.48;;;;;;;13.45;93.41;99092.09;5066614;28;20324;-89
2021/08/31 06:33:06;;;;;;;29.02;17.60;;;;;;;13.55;93.72;99089.22;5065459;28;20020;-89
2021/08/31 06:35:32;;;;;;;27.88;15.63;;;;;;;13.72;93.60;99087.00;5065351;28;20029;-89
2021/08/31 06:37:57;;;;;;;26.08;14.57;;;;;;;13.99;92.42;99074.88;5065890;28;20040;-89
2021/08/31 06:40:22;;;;;;;22.65;12.35;;;;;;;14.08;91.59;99074.63;5065352;28;20025;-89
2021/08/31 06:42:48;;;;;;;16.98;10.95;;;;;;;14.26;89.04;99072.38;5065616;28;20102;-90
2021/08/31 06:45:14;;;;;;;22.17;10.15;;;;;;;14.04;88.02;99070.31;5065388;28;20104;-89
2021/08/31 06:47:40;;;;;;;17.58;10.77;;;;;;;14.05;88.59;99085.28;5064973;28;20027;-89
2021/08/31 06:50:05;;;;;;;18.48;10.95;;;;;;;14.12;88.69;99092.16;5066278;28;20312;-89
2021/08/31 06:52:31;;;;;;;21.35;11.10;;;;;;;14.68;87.51;99094.19;5065085;28;20315;-89
2021/08/31 06:54:56;;;;;;;21.40;12.23;;;;;;;14.95;88.22;99094.25;5065228;28;20027;-89
2021/08/31 06:57:22;;;;;;;24.95;14.00;;;;;;;15.13;88.95;99098.13;5065308;28;20096;-89
2021/08/31 06:59:48;;;;;;;25.17;15.32;;;;;;;14.99;90.41;99102.97;5064919;28;20044;-89
2021/08/31 07:02:14;;;;;;;22.67;12.93;;;;;;;15.03;89.96;99101.97;5048349;28;20025;-89
2021/08/31 07:04:39;;;;;;;19.50;11.23;;;;;;;15.04;88.61;99103.72;5064790;28;20075;-89
2021/08/31 07:07:04;;;;;;;20.42;12.27;;;;;;;14.85;90.08;99103.38;5064789;28;20020;-89
2021/08/31 07:09:30;;;;;;;20.23;13.15;;;;;;;14.99;89.79;99100.31;5064765;28;20021;-89
2021/08/31 07:11:56;;;;;;;25.33;15.15;;;;;;;14.95;90.63;99093.38;5066132;28;20049;-89
2021/08/31 07:14:22;;;;;;;28.35;13.73;;;;;;;15.56;89.25;99103.00;5048510;28;20197;-89
2021/08/31 07:16:47;;;;;;;26.52;15.45;;;;;;;16.20;87.20;99092.00;5064860;28;20032;-89
2021/08/31 07:19:12;;;;;;;24.30;13.52;;;;;;;17.85;81.74;99083.03;5065745;28;20013;-89
2021/08/31 07:21:38;;;;;;;22.65;13.20;;;;;;;19.24;77.96;99083.03;5064546;28;20021;-89
2021/08/31 07:24:04;;;;;;;18.90;13.35;;;;;;;20.36;73.91;99092.59;5064424;28;20071;-89
2021/08/31 07:26:29;;;;;;;17.08;11.63;;;;;;;20.12;71.04;99093.84;5065735;28;20080;-89
2021/08/31 07:28:55;;;;;;;26.23;12.75;;;;;;;19.81;72.42;99093.63;5064472;28;20021;-90
2021/08/31 07:31:20;;;;;;;21.10;11.55;;;;;;;19.77;71.96;99105.38;5064323;28;20024;-90
2021/08/31 07:33:46;;;;;;;19.00;11.82;;;;;;;19.21;74.25;99101.84;5064284;28;20025;-90
2021/08/31 07:36:11;;;;;;;19.27;11.73;;;;;;;18.85;76.11;99103.50;5064120;28;20239;-90
2021/08/31 07:38:36;;;;;;;17.80;10.45;;;;;;;18.46;76.96;99110.63;5064147;28;20016;-89
2021/08/31 07:41:02;;;;;;;19.80;11.93;;;;;;;17.91;80.20;99105.84;5064158;28;20021;-89
2021/08/31 07:43:27;;;;;;;24.42;12.85;;;;;;;17.81;79.35;99109.84;5064173;28;20028;-90
2021/08/31 07:45:53;;;;;;;19.08;11.15;;;;;;;17.67;80.21;99114.81;5065203;28;20231;-90
2021/08/31 07:48:18;;;;;;;22.85;12.80;;;;;;;17.68;80.98;99119.25;5064322;28;20260;-89
2021/08/31 07:50:44;;;;;;;23.27;11.80;;;;;;;17.88;79.33;99127.28;5063928;28;20055;-89
2021/08/31 07:53:09;;;;;;;20.55;12.07;;;;;;;17.70;80.36;99128.03;5063872;28;20189;-89
2021/08/31 07:55:35;;;;;;;22.20;11.98;;;;;;;17.77;79.99;99124.19;5063784;28;20070;-90
2021/08/31 07:58:01;;;;;;;17.30;10.90;;;;;;;17.67;79.71;99134.34;5063026;28;20315;-90
2021/08/31 08:00:26;;;;;;;20.83;12.30;;;;;;;17.68;80.74;99129.91;5063790;28;20032;-90
2021/08/31 08:02:52;;;;;;;18.23;11.40;;;;;;;17.74;80.29;99124.28;5064040;28;20048;-90
2021/08/31 08:05:17;;;;;;;19.58;11.30;;;;;;;17.62;80.35;99132.81;5063391;28;20044;-89
2021/08/31 08:07:42;;;;;;;21.70;13.00;;;;;;;17.48;81.38;99132.44;5063635;28;20020;-89
2021/08/31 08:10:08;;;;;;;18.73;12.32;;;;;;;17.31;81.78;99134.88;5064759;28;20327;-89
2021/08/31 08:12:34;;;;;;;22.73;12.80;;;;;;;17.27;82.39;99139.44;5063571;28;20017;-89
2021/08/31 08:15:00;;;;;;;23.55;12.13;;;;;;;17.34;82.65;99140.09;5064865;28;20028;-89
2021/08/31 08:17:26;;;;;;;20.52;12.77;;;;;;;17.11;82.85;99149.81;5063431;28;20103;-89
2021/08/31 08:19:52;;;;;;;19.35;11.93;;;;;;;17.04;82.61;99148.28;5064601;28;20024;-89
2021/08/31 08:22:18;;;;;;;25.83;10.88;;;;;;;17.20;81.38;99149.47;5063700;28;20373;-90
2021/08/31 08:24:44;;;;;;;23.10;11.15;;;;;;;17.33;82.26;99143.69;5063351;28;20096;-90
2021/08/31 08:27:09;;;;;;;23.50;12.02;;;;;;;17.55;81.00;99144.59;5063393;28;20016;-90
2021/08/31 08:29:37;;;;;;;18.55;11.10;;;;;;;17.73;81.20;99149.19;5063231;28;20067;-89
2021/08/31 08:32:11;;;;;;;22.92;10.98;;;;;;;17.76;80.06;99141.09;5063304;28;20017;-89
2021/08/31 08:34:38;;;;;;;19.85;10.80;;;;;;;17.83;80.80;99151.44;5063466;28;20021;-89
2021/08/31 08:37:04;;;;;;;15.32;10.25;;;;;;;17.94;80.12;99153.69;5063443;28;20029;-89
2021/08/31 08:39:31;;;;;;;16.85;9.95;;;;;;;17.77;80.28;99150.81;5064587;28;20245;-89
2021/08/31 08:41:57;;;;;;;16.70;10.23;;;;;;;17.80;81.60;99154.22;5063117;28;20021;-89
2021/08/31 08:44:26;;;;;;;16.70;10.15;;;;;;;17.80;80.57;99150.69;5063336;28;20025;-89
2021/08/31 08:46:51;;;;;;;19.95;10.02;;;;;;;17.80;79.79;99150.69;5063331;28;20215;-90
2021/08/31 08:49:17;;;;;;;16.98;9.43;;;;;;;17.95;78.88;99140.31;5063023;28;20020;-90
2021/08/31 08:51:42;;;;;;;14.45;8.98;;;;;;;17.74;79.02;99157.13;5063280;28;20212;-89
2021/08/31 08:54:08;;;;;;;16.13;8.60;;;;;;;17.77;78.07;99158.78;5062904;28;20312;-89
2021/08/31 08:56:34;;;;;;;15.77;8.80;;;;;;;17.85;78.24;99164.69;5063197;28;20253;-90
2021/08/31 08:59:00;;;;;;;13.73;8.50;;;;;;;17.80;77.12;99164.00;5063139;28;20017;-90
2021/08/31 09:01:47;;;;;;;16.08;8.57;;;;;;;17.94;76.73;99153.69;5062855;28;20025;-89
2021/08/31 09:04:17;;;;;;;16.95;8.60;;;;;;;18.19;77.66;99165.06;5062785;28;20045;-89
2021/08/31 09:06:46;;;;;;;12.10;7.72;;;;;;;18.56;76.39;99167.94;5064179;28;20049;-89
2021/08/31 09:09:12;;;;;;;25.38;8.07;;;;;;;18.86;75.77;99159.47;5065173;28;20048;-90
2021/08/31 09:11:46;;;;;;;13.10;7.53;;;;;;;19.04;72.13;99163.09;5070833;28;20223;-89
2021/08/31 09:14:25;;;;;;;13.25;7.13;;;;;;;19.39;69.66;99169.56;5069417;28;20028;-90
2021/08/31 09:16:58;;;;;;;14.90;7.78;;;;;;;19.12;70.55;99177.00;5069683;28;20258;-89
2021/08/31 09:19:37;;;;;;;13.40;7.32;;;;;;;19.00;71.83;99177.53;5069321;28;20078;-89
2021/08/31 09:22:14;;;;;;;10.88;7.07;;;;;;;19.01;70.21;99179.25;5069305;28;20029;-90
2021/08/31 09:24:41;;;;;;;17.60;8.63;;;;;;;19.24;70.69;99187.13;5069559;28;20091;-90
2021/08/31 09:27:06;;;;;;;13.45;7.45;;;;;;;19.03;70.45;99182.72;5069296;28;20021;-90
2021/08/31 09:29:39;;;;;;;12.27;7.28;;;;;;;21.26;66.24;99184.13;5070686;28;20052;-90
2021/08/31 09:32:09;;;;;;;14.95;8.02;;;;;;;20.94;65.44;99181.41;5070370;28;20023;-90
2021/08/31 09:34:37;;;;;;;12.88;7.30;;;;;;;21.18;64.38;99181.00;5069283;28;20052;-90
2021/08/31 09:37:26;;;;;;;13.70;7.40;;;;;;;20.29;65.32;99187.44;5069371;28;20086;-90
2021/08/31 09:40:10;;;;;;;11.60;7.00;;;;;;;21.58;62.22;99185.06;5069439;28;20025;-90
2021/08/31 09:42:52;;;;;;;13.20;6.90;;;;;;;21.47;64.47;99181.22;5069546;28;20304;-90
2021/08/31 09:45:23;;;;;;;13.18;7.47;;;;;;;21.25;63.89;99186.88;5069198;28;20070;-90
2021/08/31 09:47:49;;;;;;;11.73;7.13;;;;;;;21.18;63.02;99186.38;5069480;28;20020;-90
2021/08/31 09:50:24;;;;;;;11.68;6.93;;;;;;;21.80;62.05;99174.91;5069394;28;20029;-90
2021/08/31 09:53:00;;;;;;;14.38;7.13;;;;;;;22.91;60.77;99175.53;5069631;28;20330;-90
2021/08/31 09:55:25;;;;;;;14.27;7.97;;;;;;;23.73;58.06;99174.81;5069007;28;20028;-90
2021/08/31 09:57:51;;;;;;;11.10;6.45;;;;;;;21.79;59.50;99173.19;5069046;28;20020;-90
2021/08/31 10:00:18;;;;;;;13.65;5.57;;;;;;;20.98;63.21;99177.66;5068976;28;20316;-90
2021/08/31 10:02:48;;;;;;;10.07;5.95;;;;;;;21.22;60.19;99176.34;5069254;28;20032;-90
2021/08/31 10:05:13;;;;;;;12.05;5.75;;;;;;;20.66;61.77;99179.28;5070006;28;20032;-90
2021/08/31 10:07:43;;;;;;;9.25;5.85;;;;;;;21.20;59.97;99184.44;5052295;28;20028;-90
2021/08/31 10:10:08;;;;;;;10.25;5.30;;;;;;;20.81;61.98;99175.81;5052214;28;20021;-90
2021/08/31 10:12:35;;;;;;;8.80;5.13;;;;;;;20.62;62.52;99180.38;5052178;28;20224;-90
2021/08/31 10:15:03;;;;;;;10.00;5.45;;;;;;;20.77;63.37;99168.91;5052139;28;20028;-90
2021/08/31 10:17:29;;;;;;;10.20;6.00;;;;;;;20.36;64.35;99183.50;5052101;28;20028;-90
2021/08/31 10:19:57;;;;;;;8.73;4.97;;;;;;;20.77;63.57;99182.28;5051944;28;20032;-90
2021/08/31 10:22:24;;;;;;;9.38;5.75;;;;;;;20.39;63.78;99183.34;5048691;28;20250;-90
2021/08/31 10:24:50;;;;;;;10.32;5.20;;;;;;;20.55;62.37;99189.66;5049237;28;20025;-90
2021/08/31 10:27:35;;;;;;;9.77;4.93;;;;;;;20.82;62.93;99188.25;5066740;28;20017;-90
2021/08/31 10:30:19;;;;;;;8.65;5.35;;;;;;;21.17;61.06;99189.97;5049197;28;20032;-90
2021/08/31 10:33:11;;;;;;;9.45;5.28;;;;;;;20.34;62.78;99189.88;5066604;28;20085;-90
2021/08/31 10:35:44;;;;;;;9.82;4.80;;;;;;;20.13;61.63;99189.13;5018793;28;20040;-90
2021/08/31 10:38:12;;;;;;;10.65;4.55;;;;;;;20.08;61.97;99193.78;5048781;28;20330;-89
2021/08/31 10:40:46;;;;;;;9.85;5.05;;;;;;;19.79;62.84;99186.31;5066741;28;20021;-90
2021/08/31 10:43:19;;;;;;;11.05;4.82;;;;;;;19.80;63.58;99182.69;5048666;28;20032;-90
2021/08/31 10:45:56;;;;;;;7.72;4.53;;;;;;;20.01;62.63;99189.69;5048637;28;20013;-90
2021/08/31 10:48:23;;;;;;;10.10;5.20;;;;;;;20.28;62.47;99185.69;5048595;28;20358;-90
2021/08/31 10:50:58;;;;;;;8.73;4.82;;;;;;;20.08;64.24;99199.13;5066255;28;20029;-90
2021/08/31 10:53:43;;;;;;;8.38;4.28;;;;;;;20.32;61.56;99192.63;5066529;28;20208;-90
2021/08/31 10:56:25;;;;;;;9.45;4.50;;;;;;;20.62;59.15;99199.09;5048754;28;20025;-90
2021/08/31 10:58:52;;;;;;;8.30;4.22;;;;;;;20.98;59.96;99194.56;5048397;28;20260;-90
2021/08/31 11:01:23;;;;;;;8.38;4.05;;;;;;;21.97;56.85;99188.25;5066073;28;20021;-90
2021/08/31 11:03:53;;;;;;;7.63;4.20;;;;;;;22.00;55.97;99200.59;5050566;28;20339;-90
2021/08/31 11:06:28;;;;;;;10.27;5.40;;;;;;;22.61;57.08;99185.41;5064836;28;20044;-90
2021/08/31 11:09:10;;;;;;;11.32;5.15;;;;;;;21.92;55.49;99190.31;5064802;28;20021;-90
2021/08/31 11:11:37;;;;;;;9.48;5.05;;;;;;;21.73;56.52;99186.03;5064779;28;20243;-90
2021/08/31 11:14:03;;;;;;;7.82;4.95;;;;;;;21.53;57.82;99180.88;5064709;28;20025;-90
2021/08/31 11:16:30;;;;;;;8.85;4.60;;;;;;;21.76;56.57;99180.56;5064547;28;20028;-90
2021/08/31 11:18:56;;;;;;;11.68;4.70;;;;;;;21.99;55.31;99177.44;5064653;28;20298;-90
2021/08/31 11:21:22;;;;;;;7.13;4.45;;;;;;;21.62;57.28;99180.41;5064567;28;20025;-90
2021/08/31 11:23:48;;;;;;;7.13;4.53;;;;;;;21.52;59.01;99189.88;5064835;28;20025;-90
2021/08/31 11:26:25;;;;;;;9.20;4.40;;;;;;;21.06;57.39;99184.31;5064286;28;20031;-90